Time,TemperatureF,DewpointF,PressureIn,WindDirection,WindDirectionDegrees,WindSpeedMPH,WindSpeedGustMPH,Humidity,HourlyPrecipIn,Conditions,Clouds,dailyrainin,SolarRadiationWatts/m^2,SoftwareType,DateUTC
2013-05-07 00:04:00,57.3,54.0,29.96,NNE,32,0.0,0.0,89,0.00,,,0.02,0,weatherlink.com 1.10,2013-05-07 04:04:00,
2013-05-07 00:19:00,56.7,54.0,29.96,NNE,32,0.0,0.0,89,0.00,,,0.02,0,weatherlink.com 1.10,2013-05-07 04:19:00,
2013-05-07 00:34:00,56.4,54.0,29.96,NNE,32,0.0,0.0,90,0.00,,,0.02,0,weatherlink.com 1.10,2013-05-07 04:34:00,
2013-05-07 00:49:00,56.2,54.0,29.95,NNE,32,0.0,0.0,91,0.00,,,0.02,0,weatherlink.com 1.10,2013-05-07 04:49:00,
2013-05-07 01:04:00,56.1,54.0,29.95,NNE,32,0.0,0.0,92,0.00,,,0.02,0,weatherlink.com 1.10,2013-05-07 05:04:00,
2013-05-07 01:19:00,56.0,54.0,29.95,NNE,32,0.0,0.0,92,0.00,,,0.02,0,weatherlink.com 1.10,2013-05-07 05:19:00,
2013-05-07 01:34:00,55.9,54.0,29.95,NNE,32,0.0,0.0,92,0.00,,,0.02,0,weatherlink.com 1.10,2013-05-07 05:34:00,
2013-05-07 01:49:00,55.6,53.0,29.95,NNE,32,0.0,0.0,92,0.00,,,0.02,0,weatherlink.com 1.10,2013-05-07 05:49:00,
2013-05-07 02:04:00,55.6,54.0,29.95,NNE,32,0.0,0.0,93,0.00,,,0.02,0,weatherlink.com 1.10,2013-05-07 06:04:00,
2013-05-07 02:19:00,55.7,54.0,29.95,NNE,32,0.0,0.0,93,0.00,,,0.02,0,weatherlink.com 1.10,2013-05-07 06:19:00,
2013-05-07 02:34:00,55.4,54.0,29.94,NNE,32,0.0,0.0,93,0.00,,,0.02,0,weatherlink.com 1.10,2013-05-07 06:34:00,
2013-05-07 02:49:00,55.1,53.0,29.94,NNE,32,0.0,0.0,93,0.00,,,0.02,0,weatherlink.com 1.10,2013-05-07 06:49:00,
2013-05-07 03:04:00,54.7,53.0,29.94,NNE,32,0.0,0.0,93,0.00,,,0.02,0,weatherlink.com 1.10,2013-05-07 07:04:00,
2013-05-07 03:19:00,54.5,53.0,29.94,NNE,32,0.0,0.0,93,0.00,,,0.02,0,weatherlink.com 1.10,2013-05-07 07:19:00,
2013-05-07 03:34:00,54.6,53.0,29.94,NNE,32,0.0,0.0,94,0.00,,,0.02,0,weatherlink.com 1.10,2013-05-07 07:34:00,
2013-05-07 03:49:00,54.8,53.0,29.95,NNE,32,0.0,0.0,94,0.00,,,0.02,0,weatherlink.com 1.10,2013-05-07 07:49:00,
2013-05-07 04:04:00,55.0,53.0,29.94,NNE,32,0.0,0.0,94,0.00,,,0.02,0,weatherlink.com 1.10,2013-05-07 08:04:00,
2013-05-07 04:19:00,55.2,54.0,29.95,NNE,32,0.0,0.0,94,0.00,,,0.00,0,weatherlink.com 1.10,2013-05-07 08:19:00,
2013-05-07 04:34:00,55.2,54.0,29.95,NNE,32,0.0,0.0,94,0.00,,,0.00,0,weatherlink.com 1.10,2013-05-07 08:34:00,
2013-05-07 04:49:00,55.2,54.0,29.96,NNE,32,0.0,0.0,94,0.00,,,0.00,0,weatherlink.com 1.10,2013-05-07 08:49:00,
2013-05-07 05:04:00,55.1,54.0,29.95,NNE,32,0.0,0.0,94,0.00,,,0.00,0,weatherlink.com 1.10,2013-05-07 09:04:00,
2013-05-07 05:19:00,55.2,54.0,29.96,NNE,32,0.0,0.0,95,0.00,,,0.00,0,weatherlink.com 1.10,2013-05-07 09:19:00,
2013-05-07 05:34:00,55.3,54.0,29.96,NNE,32,0.0,0.0,95,0.00,,,0.00,0,weatherlink.com 1.10,2013-05-07 09:34:00,
2013-05-07 05:49:00,55.3,54.0,29.96,NNE,32,0.0,0.0,94,0.00,,,0.00,0,weatherlink.com 1.10,2013-05-07 09:49:00,
2013-05-07 06:04:00,55.2,54.0,29.97,NNE,32,0.0,0.0,94,0.00,,,0.00,0,weatherlink.com 1.10,2013-05-07 10:04:00,
2013-05-07 06:19:00,55.0,53.0,29.97,NNE,32,0.0,0.0,94,0.00,,,0.00,0,weatherlink.com 1.10,2013-05-07 10:19:00,
2013-05-07 06:34:00,55.1,54.0,29.97,NNE,32,0.0,0.0,95,0.00,,,0.00,0,weatherlink.com 1.10,2013-05-07 10:34:00,
2013-05-07 06:49:00,55.1,54.0,29.97,NNE,32,0.0,0.0,95,0.00,,,0.00,5,weatherlink.com 1.10,2013-05-07 10:49:00,
2013-05-07 07:04:00,55.3,54.0,29.98,NNE,32,0.0,1.0,95,0.00,,,0.00,18,weatherlink.com 1.10,2013-05-07 11:04:00,
2013-05-07 07:19:00,55.7,54.0,29.98,NNE,32,0.0,0.0,95,0.00,,,0.00,77,weatherlink.com 1.10,2013-05-07 11:19:00,
2013-05-07 07:34:00,56.4,55.0,29.98,NNE,32,0.0,0.0,95,0.00,,,0.00,76,weatherlink.com 1.10,2013-05-07 11:34:00,
2013-05-07 07:49:00,56.7,55.0,29.99,NNE,32,0.0,2.0,95,0.00,,,0.00,53,weatherlink.com 1.10,2013-05-07 11:49:00,
2013-05-07 08:04:00,56.9,56.0,29.99,NNE,32,0.0,1.0,95,0.00,,,0.00,63,weatherlink.com 1.10,2013-05-07 12:04:00,
2013-05-07 08:19:00,57.1,55.0,29.99,NNE,32,0.0,0.0,94,0.00,,,0.00,104,weatherlink.com 1.10,2013-05-07 12:19:00,
2013-05-07 08:34:00,57.7,56.0,29.99,NNE,32,0.0,0.0,94,0.00,,,0.00,169,weatherlink.com 1.10,2013-05-07 12:34:00,
2013-05-07 08:49:00,58.9,57.0,29.99,NNE,32,0.0,0.0,94,0.00,,,0.00,450,weatherlink.com 1.10,2013-05-07 12:49:00,
2013-05-07 09:04:00,60.9,58.0,29.99,NE,44,0.0,4.0,89,0.00,,,0.00,323,weatherlink.com 1.10,2013-05-07 13:04:00,
2013-05-07 09:19:00,63.4,58.0,29.99,NE,44,0.0,1.0,81,0.00,,,0.00,490,weatherlink.com 1.10,2013-05-07 13:19:00,
2013-05-07 09:34:00,64.1,58.0,30.00,NE,44,0.0,2.0,81,0.00,,,0.00,510,weatherlink.com 1.10,2013-05-07 13:34:00,
2013-05-07 09:50:00,64.9,58.0,30.00,NNE,29,1.0,4.0,78,0.00,,,0.00,577,weatherlink.com 1.10,2013-05-07 13:50:00,
2013-05-07 10:05:00,66.0,58.0,29.99,ESE,123,4.0,7.0,75,0.00,,,0.00,645,weatherlink.com 1.10,2013-05-07 14:05:00,
2013-05-07 10:20:00,67.0,58.0,29.99,ENE,75,2.0,6.0,73,0.00,,,0.00,740,weatherlink.com 1.10,2013-05-07 14:20:00,
2013-05-07 10:35:00,67.6,57.0,29.99,ESE,109,1.0,7.0,70,0.00,,,0.00,181,weatherlink.com 1.10,2013-05-07 14:35:00,
2013-05-07 10:50:00,67.8,57.0,29.99,NNW,346,3.0,6.0,69,0.00,,,0.00,747,weatherlink.com 1.10,2013-05-07 14:50:00,
2013-05-07 11:05:00,67.9,59.0,29.98,NNE,30,4.0,6.0,72,0.00,,,0.00,863,weatherlink.com 1.10,2013-05-07 15:05:00,
2013-05-07 11:20:00,68.6,59.0,29.98,ENE,71,1.0,8.0,71,0.00,,,0.00,965,weatherlink.com 1.10,2013-05-07 15:20:00,
2013-05-07 11:35:00,70.1,59.0,29.98,NE,46,1.0,7.0,68,0.00,,,0.00,1093,weatherlink.com 1.10,2013-05-07 15:35:00,
2013-05-07 11:50:00,70.0,58.0,29.98,NNW,338,0.0,6.0,67,0.00,,,0.00,373,weatherlink.com 1.10,2013-05-07 15:50:00,
2013-05-07 12:05:00,69.7,58.0,29.98,NW,318,1.0,5.0,66,0.00,,,0.00,438,weatherlink.com 1.10,2013-05-07 16:05:00,
2013-05-07 12:20:00,69.4,58.0,29.98,WNW,301,3.0,5.0,68,0.00,,,0.00,404,weatherlink.com 1.10,2013-05-07 16:20:00,
2013-05-07 12:35:00,70.1,57.0,29.98,NE,35,2.0,6.0,64,0.00,,,0.00,1049,weatherlink.com 1.10,2013-05-07 16:35:00,
2013-05-07 12:50:00,70.5,56.0,29.98,NW,323,1.0,7.0,60,0.00,,,0.00,1269,weatherlink.com 1.10,2013-05-07 16:50:00,
2013-05-07 13:05:00,72.0,57.0,29.98,ENE,57,0.0,8.0,60,0.00,,,0.00,1111,weatherlink.com 1.10,2013-05-07 17:05:00,
2013-05-07 13:20:00,72.5,59.0,29.97,North,350,0.0,5.0,62,0.01,,,0.01,1144,weatherlink.com 1.10,2013-05-07 17:20:00,
2013-05-07 13:35:00,73.1,57.0,29.97,NNE,16,1.0,8.0,58,0.01,,,0.01,341,weatherlink.com 1.10,2013-05-07 17:35:00,
2013-05-07 13:50:00,70.6,57.0,29.97,ENE,59,0.0,11.0,62,0.01,,,0.01,311,weatherlink.com 1.10,2013-05-07 17:50:00,
2013-05-07 14:05:00,71.0,58.0,29.96,West,265,2.0,4.0,64,0.01,,,0.01,380,weatherlink.com 1.10,2013-05-07 18:05:00,
2013-05-07 14:20:00,72.3,58.0,29.96,NE,44,0.0,5.0,61,0.00,,,0.01,341,weatherlink.com 1.10,2013-05-07 18:20:00,
2013-05-07 14:35:00,73.7,55.0,29.96,ENE,65,4.0,7.0,53,0.00,,,0.01,877,weatherlink.com 1.10,2013-05-07 18:35:00,
2013-05-07 14:50:00,72.2,58.0,29.97,NE,42,3.0,7.0,62,0.00,,,0.01,390,weatherlink.com 1.10,2013-05-07 18:50:00,
2013-05-07 15:05:00,71.5,57.0,29.96,NNE,31,0.0,2.0,61,0.00,,,0.01,677,weatherlink.com 1.10,2013-05-07 19:05:00,
2013-05-07 15:20:00,72.7,57.0,29.96,ENE,61,1.0,5.0,59,0.00,,,0.01,791,weatherlink.com 1.10,2013-05-07 19:20:00,
2013-05-07 15:35:00,73.5,58.0,29.95,North,5,0.0,6.0,59,0.00,,,0.01,415,weatherlink.com 1.10,2013-05-07 19:35:00,
2013-05-07 15:50:00,72.8,57.0,29.95,ENE,71,1.0,4.0,57,0.00,,,0.01,1097,weatherlink.com 1.10,2013-05-07 19:50:00,
2013-05-07 16:05:00,74.3,56.0,29.95,NE,55,0.0,7.0,54,0.00,,,0.01,844,weatherlink.com 1.10,2013-05-07 20:05:00,
2013-05-07 16:20:00,74.0,58.0,29.95,ENE,67,0.0,7.0,58,0.00,,,0.01,554,weatherlink.com 1.10,2013-05-07 20:20:00,
2013-05-07 16:35:00,72.5,57.0,29.94,NE,44,5.0,5.0,59,0.00,,,0.01,325,weatherlink.com 1.10,2013-05-07 20:35:00,
2013-05-07 16:50:00,71.0,55.0,29.94,SW,229,1.0,4.0,57,0.00,,,0.01,255,weatherlink.com 1.10,2013-05-07 20:50:00,
2013-05-07 17:05:00,70.7,56.0,29.94,NE,38,0.0,4.0,61,0.00,,,0.01,265,weatherlink.com 1.10,2013-05-07 21:05:00,
2013-05-07 17:20:00,70.0,56.0,29.94,NNE,29,0.0,4.0,61,0.00,,,0.01,267,weatherlink.com 1.10,2013-05-07 21:20:00,
2013-05-07 17:35:00,70.0,56.0,29.94,ENE,59,6.0,6.0,62,0.00,,,0.01,332,weatherlink.com 1.10,2013-05-07 21:35:00,
2013-05-07 17:51:00,70.6,55.0,29.94,NE,35,1.0,5.0,58,0.00,,,0.01,369,weatherlink.com 1.10,2013-05-07 21:51:00,
2013-05-07 18:06:00,70.7,58.0,29.94,North,351,0.0,0.0,64,0.00,,,0.01,320,weatherlink.com 1.10,2013-05-07 22:06:00,
2013-05-07 18:21:00,70.8,56.0,29.94,NE,53,0.0,5.0,59,0.00,,,0.01,225,weatherlink.com 1.10,2013-05-07 22:21:00,
2013-05-07 18:36:00,70.3,57.0,29.94,NW,311,0.0,4.0,62,0.00,,,0.01,162,weatherlink.com 1.10,2013-05-07 22:36:00,
2013-05-07 18:51:00,69.6,55.0,29.94,NNW,342,0.0,4.0,60,0.00,,,0.01,146,weatherlink.com 1.10,2013-05-07 22:51:00,
2013-05-07 19:06:00,69.2,56.0,29.94,NE,45,0.0,2.0,64,0.00,,,0.01,104,weatherlink.com 1.10,2013-05-07 23:06:00,
2013-05-07 19:21:00,68.7,57.0,29.93,NE,53,0.0,2.0,66,0.00,,,0.01,81,weatherlink.com 1.10,2013-05-07 23:21:00,
2013-05-07 19:36:00,68.0,56.0,29.93,NE,53,0.0,0.0,65,0.00,,,0.01,53,weatherlink.com 1.10,2013-05-07 23:36:00,
2013-05-07 19:51:00,67.2,55.0,29.93,NE,53,0.0,0.0,64,0.00,,,0.01,40,weatherlink.com 1.10,2013-05-07 23:51:00,
2013-05-07 20:06:00,66.2,54.0,29.93,NE,53,0.0,0.0,66,0.00,,,0.01,23,weatherlink.com 1.10,2013-05-08 00:06:00,
2013-05-07 20:21:00,65.4,55.0,29.94,NE,53,0.0,0.0,68,0.00,,,0.01,16,weatherlink.com 1.10,2013-05-08 00:21:00,
2013-05-07 20:36:00,64.7,54.0,29.94,NE,53,0.0,0.0,68,0.00,,,0.01,0,weatherlink.com 1.10,2013-05-08 00:36:00,
2013-05-07 20:51:00,64.0,53.0,29.94,NE,53,0.0,0.0,68,0.00,,,0.01,0,weatherlink.com 1.10,2013-05-08 00:51:00,
2013-05-07 21:06:00,63.9,54.0,29.95,NE,53,0.0,0.0,69,0.00,,,0.01,0,weatherlink.com 1.10,2013-05-08 01:06:00,
2013-05-07 21:21:00,63.5,53.0,29.95,NE,53,0.0,0.0,69,0.00,,,0.01,0,weatherlink.com 1.10,2013-05-08 01:21:00,
2013-05-07 21:36:00,63.2,53.0,29.95,NE,53,0.0,0.0,70,0.00,,,0.01,0,weatherlink.com 1.10,2013-05-08 01:36:00,
2013-05-07 21:51:00,63.2,53.0,29.95,NE,53,0.0,0.0,70,0.00,,,0.01,0,weatherlink.com 1.10,2013-05-08 01:51:00,
2013-05-07 22:06:00,62.9,53.0,29.96,NE,53,0.0,0.0,70,0.00,,,0.01,0,weatherlink.com 1.10,2013-05-08 02:06:00,
2013-05-07 22:21:00,63.0,53.0,29.96,NE,53,0.0,0.0,71,0.00,,,0.01,0,weatherlink.com 1.10,2013-05-08 02:21:00,
2013-05-07 22:36:00,63.0,54.0,29.97,NE,53,0.0,0.0,73,0.00,,,0.01,0,weatherlink.com 1.10,2013-05-08 02:36:00,
2013-05-07 22:51:00,62.4,53.0,29.97,NE,53,0.0,0.0,72,0.01,,,0.02,0,weatherlink.com 1.10,2013-05-08 02:51:00,
2013-05-07 23:06:00,61.9,55.0,29.97,NE,53,0.0,0.0,77,0.01,,,0.02,0,weatherlink.com 1.10,2013-05-08 03:06:00,
2013-05-07 23:21:00,60.9,54.0,29.97,NE,53,0.0,0.0,78,0.01,,,0.02,0,weatherlink.com 1.10,2013-05-08 03:21:00,
2013-05-07 23:36:00,60.4,54.0,29.96,NE,53,0.0,0.0,78,0.01,,,0.02,0,weatherlink.com 1.10,2013-05-08 03:36:00,
2013-05-07 23:51:00,59.7,54.0,29.96,NE,53,0.0,1.0,82,0.00,,,0.02,0,weatherlink.com 1.10,2013-05-08 03:51:00,